Time,TemperatureF,DewpointF,PressureIn,WindDirection,WindDirectionDegrees,WindSpeedMPH,WindSpeedGustMPH,Humidity,HourlyPrecipIn,Conditions,Clouds,dailyrainin,SoftwareType,DateUTC
2014-12-25 00:03:00,44.8,31.8,29.79,NE,45,0.4,2.2,60,0.00,,---,0.00,VWS V15.00,2014-12-25 05:03:00,
2014-12-25 00:08:00,44.6,32.0,29.77,WNW,292,1.8,4.7,61,0.00,,---,0.00,VWS V15.00,2014-12-25 05:08:00,
2014-12-25 00:13:00,44.3,31.3,29.78,WNW,292,3.8,5.1,60,0.00,,---,0.00,VWS V15.00,2014-12-25 05:13:00,
2014-12-25 00:18:00,44.3,31.3,29.78,NNW,338,1.6,4.9,60,0.00,,---,0.00,VWS V15.00,2014-12-25 05:18:00,
2014-12-25 00:23:00,44.3,30.9,29.77,NW,315,0.9,3.6,59,0.00,,---,0.00,VWS V15.00,2014-12-25 05:23:00,
2014-12-25 00:28:00,44.1,30.7,29.78,WNW,292,0.4,4.9,59,0.00,,---,0.00,VWS V15.00,2014-12-25 05:28:00,
2014-12-25 00:33:00,43.9,30.1,29.80,NW,315,1.3,4.3,58,0.00,,---,0.00,VWS V15.00,2014-12-25 05:33:00,
2014-12-25 00:38:00,43.7,29.9,29.78,WSW,248,1.1,4.0,58,0.00,,---,0.00,VWS V15.00,2014-12-25 05:38:00,
2014-12-25 00:44:00,43.7,29.9,29.79,West,270,0.0,1.6,58,0.00,,---,0.00,VWS V15.00,2014-12-25 05:44:00,
2014-12-25 00:49:00,43.6,29.8,29.79,NNW,338,0.4,3.4,58,0.00,,---,0.00,VWS V15.00,2014-12-25 05:49:00,
2014-12-25 00:54:00,43.6,29.8,29.76,NW,315,0.0,4.9,58,0.00,,---,0.00,VWS V15.00,2014-12-25 05:54:00,
2014-12-25 00:59:00,43.4,29.6,29.75,NW,315,0.7,2.7,58,0.00,,---,0.00,VWS V15.00,2014-12-25 05:59:00,
2014-12-25 01:04:00,43.2,29.4,29.76,WNW,292,0.0,2.5,58,0.00,,---,0.00,VWS V15.00,2014-12-25 06:04:00,
2014-12-25 01:09:00,43.2,29.4,29.76,NW,315,0.7,3.4,58,0.00,,---,0.00,VWS V15.00,2014-12-25 06:09:00,
2014-12-25 01:14:00,43.2,29.4,29.78,WNW,292,0.9,2.5,58,0.00,,---,0.00,VWS V15.00,2014-12-25 06:14:00,
2014-12-25 01:19:00,43.0,29.2,29.77,WNW,292,1.1,4.0,58,0.00,,---,0.00,VWS V15.00,2014-12-25 06:19:00,
2014-12-25 01:24:00,43.0,29.2,29.75,NW,315,1.1,3.4,58,0.00,,---,0.00,VWS V15.00,2014-12-25 06:24:00,
2014-12-25 01:29:00,43.0,29.2,29.77,SW,225,2.0,4.5,58,0.00,,---,0.00,VWS V15.00,2014-12-25 06:29:00,
2014-12-25 01:34:00,42.8,29.5,29.77,WNW,292,1.8,4.7,59,0.00,,---,0.00,VWS V15.00,2014-12-25 06:34:00,
2014-12-25 01:39:00,42.8,29.5,29.78,NW,315,0.7,3.4,59,0.00,,---,0.00,VWS V15.00,2014-12-25 06:39:00,
2014-12-25 01:44:00,42.8,29.5,29.78,West,270,1.3,4.0,59,0.00,,---,0.00,VWS V15.00,2014-12-25 06:44:00,
2014-12-25 01:49:00,42.7,29.4,29.79,NW,315,2.0,4.9,59,0.00,,---,0.00,VWS V15.00,2014-12-25 06:49:00,
2014-12-25 01:54:00,42.7,29.4,29.78,NW,315,1.6,1.6,59,0.00,,---,0.00,VWS V15.00,2014-12-25 06:54:00,
2014-12-25 01:59:00,42.7,29.4,29.79,NW,315,0.4,2.9,59,0.00,,---,0.00,VWS V15.00,2014-12-25 06:59:00,
2014-12-25 02:04:00,42.5,29.2,29.78,WSW,248,0.0,2.9,59,0.00,,---,0.00,VWS V15.00,2014-12-25 07:04:00,
2014-12-25 02:09:00,42.5,29.6,29.80,NW,315,2.0,3.6,60,0.00,,---,0.00,VWS V15.00,2014-12-25 07:09:00,
2014-12-25 02:14:00,42.5,30.0,29.80,East,90,0.0,2.9,61,0.00,,---,0.00,VWS V15.00,2014-12-25 07:14:00,
2014-12-25 02:19:00,42.3,29.4,29.81,NW,315,0.4,2.2,60,0.00,,---,0.00,VWS V15.00,2014-12-25 07:19:00,
2014-12-25 02:24:00,42.3,29.4,29.80,North,0,0.4,2.2,60,0.00,,---,0.00,VWS V15.00,2014-12-25 07:24:00,
2014-12-25 02:29:00,42.3,29.4,29.80,North,0,0.0,2.2,60,0.00,,---,0.00,VWS V15.00,2014-12-25 07:29:00,
2014-12-25 02:34:00,42.3,29.4,29.81,North,0,0.2,1.8,60,0.00,,---,0.00,VWS V15.00,2014-12-25 07:34:00,
2014-12-25 02:39:00,42.1,29.2,29.80,NW,315,0.9,2.7,60,0.00,,---,0.00,VWS V15.00,2014-12-25 07:39:00,
2014-12-25 02:44:00,42.1,29.2,29.80,WNW,292,0.4,2.0,60,0.00,,---,0.00,VWS V15.00,2014-12-25 07:44:00,
2014-12-25 02:49:00,41.9,29.0,29.81,NW,315,2.0,2.0,60,0.00,,---,0.00,VWS V15.00,2014-12-25 07:49:00,
2014-12-25 02:54:00,41.9,29.0,29.81,WNW,292,0.4,2.2,60,0.00,,---,0.00,VWS V15.00,2014-12-25 07:54:00,
2014-12-25 02:59:00,41.8,29.0,29.81,NW,315,1.8,2.5,60,0.00,,---,0.00,VWS V15.00,2014-12-25 07:59:00,
2014-12-25 03:04:00,41.8,29.0,29.81,NW,315,2.2,2.5,60,0.00,,---,0.00,VWS V15.00,2014-12-25 08:04:00,
2014-12-25 03:09:00,41.6,28.8,29.81,NW,315,1.6,2.9,60,0.00,,---,0.00,VWS V15.00,2014-12-25 08:09:00,